createdAt,value
2018-04-18T00:00:18.194Z,1017.06
2018-04-18T00:01:18.177Z,1017.02
2018-04-18T00:02:18.098Z,1017.03
2018-04-18T00:03:18.074Z,1017.10
2018-04-18T00:04:18.005Z,1017.09
2018-04-18T00:05:17.961Z,1017.06
2018-04-18T00:06:17.923Z,1017.07
2018-04-18T00:07:17.865Z,1017.04
2018-04-18T00:08:17.841Z,1017.01
2018-04-18T00:09:17.778Z,1017.02
2018-04-18T00:10:17.724Z,1017.03
2018-04-18T00:11:17.679Z,1017.04
2018-04-18T00:12:17.633Z,1017.00
2018-04-18T00:13:17.609Z,1017.01
2018-04-18T00:14:17.538Z,1017.05
2018-04-18T00:15:17.488Z,1017.02
2018-04-18T00:16:17.451Z,1017.01
2018-04-18T00:17:17.408Z,1017.00
2018-04-18T00:18:17.374Z,1016.97
2018-04-18T00:19:17.300Z,1016.98
2018-04-18T00:20:17.258Z,1016.98
2018-04-18T00:21:17.210Z,1017.01
2018-04-18T00:22:17.163Z,1016.95
2018-04-18T00:23:17.136Z,1016.95
2018-04-18T00:24:17.072Z,1016.97
2018-04-18T00:25:17.026Z,1016.99
2018-04-18T00:26:16.976Z,1017.03
2018-04-18T00:27:16.930Z,1016.99
2018-04-18T00:28:16.911Z,1017.02
2018-04-18T00:29:16.836Z,1017.00
2018-04-18T00:30:16.789Z,1016.97
2018-04-18T00:31:16.742Z,1017.04
2018-04-18T00:32:16.693Z,1017.01
2018-04-18T00:33:16.669Z,1017.01
2018-04-18T00:34:16.600Z,1017.02
2018-04-18T00:35:16.552Z,1017.03
2018-04-18T00:36:16.508Z,1017.00
2018-04-18T00:37:16.487Z,1017.07
2018-04-18T00:38:16.439Z,1017.11
2018-04-18T00:39:16.377Z,1017.07
2018-04-18T00:40:16.324Z,1017.05
2018-04-18T00:41:16.277Z,1017.09
2018-04-18T00:42:16.232Z,1017.08
2018-04-18T00:43:16.210Z,1017.11
2018-04-18T00:44:16.135Z,1017.11
2018-04-18T00:45:16.085Z,1017.12
2018-04-18T00:46:16.037Z,1017.09
2018-04-18T00:47:15.997Z,1017.14
2018-04-18T00:48:15.970Z,1017.15
2018-04-18T00:49:15.900Z,1017.16
2018-04-18T00:50:15.857Z,1017.16
2018-04-18T00:51:15.800Z,1017.19
2018-04-18T00:52:15.760Z,1017.17
2018-04-18T00:53:15.733Z,1017.18
2018-04-18T00:54:15.663Z,1017.15
2018-04-18T00:55:15.619Z,1017.17
2018-04-18T00:56:15.573Z,1017.18
2018-04-18T00:57:15.526Z,1017.23
2018-04-18T00:58:15.502Z,1017.19
2018-04-18T00:59:15.434Z,1017.17
2018-04-18T01:00:15.384Z,1017.15
2018-04-18T01:01:15.338Z,1017.16
2018-04-18T01:02:15.287Z,1017.15
2018-04-18T01:03:15.266Z,1017.20
2018-04-18T01:04:15.197Z,1017.19
2018-04-18T01:05:15.149Z,1017.20
2018-04-18T01:06:15.106Z,1017.19
2018-04-18T01:07:15.057Z,1017.22
2018-04-18T01:08:15.032Z,1017.22
2018-04-18T01:09:14.961Z,1017.20
2018-04-18T01:10:14.914Z,1017.21
2018-04-18T01:11:14.869Z,1017.23
2018-04-18T01:12:14.842Z,1017.24
2018-04-18T01:13:14.797Z,1017.28
2018-04-18T01:14:14.731Z,1017.29
2018-04-18T01:15:14.683Z,1017.29
2018-04-18T01:16:14.638Z,1017.33
2018-04-18T01:17:14.621Z,1017.32
2018-04-18T01:18:14.596Z,1017.33
2018-04-18T01:19:14.488Z,1017.29
2018-04-18T01:20:14.448Z,1017.27
2018-04-18T01:21:14.398Z,1017.26
2018-04-18T01:22:14.350Z,1017.29
2018-04-18T01:23:14.307Z,1017.26
2018-04-18T01:24:14.283Z,1017.28
2018-04-18T01:25:14.211Z,1017.29
2018-04-18T01:26:14.165Z,1017.27
2018-04-18T01:27:14.115Z,1017.26
2018-04-18T01:28:14.071Z,1017.26
2018-04-18T01:29:14.045Z,1017.29
2018-04-18T01:30:13.971Z,1017.26
2018-04-18T01:31:13.930Z,1017.27
2018-04-18T01:32:13.886Z,1017.24
2018-04-18T01:33:13.832Z,1017.29
2018-04-18T01:34:13.805Z,1017.31
2018-04-18T01:35:13.740Z,1017.30
2018-04-18T01:36:13.689Z,1017.28
2018-04-18T01:37:13.644Z,1017.32
2018-04-18T01:38:13.596Z,1017.30
2018-04-18T01:39:13.576Z,1017.30
2018-04-18T01:40:13.506Z,1017.31
2018-04-18T01:41:13.458Z,1017.32
2018-04-18T01:42:13.421Z,1017.34
2018-04-18T01:43:13.362Z,1017.36
2018-04-18T01:44:13.331Z,1017.36
2018-04-18T01:45:13.304Z,1017.36
2018-04-18T01:46:13.219Z,1017.38
2018-04-18T01:47:13.183Z,1017.36
2018-04-18T01:48:13.128Z,1017.35
2018-04-18T01:49:13.121Z,1017.37
2018-04-18T01:50:13.047Z,1017.39
2018-04-18T01:51:12.986Z,1017.40
2018-04-18T01:52:12.936Z,1017.38
2018-04-18T01:53:12.886Z,1017.41
2018-04-18T01:54:12.864Z,1017.37
2018-04-18T01:55:12.795Z,1017.40
2018-04-18T01:56:12.749Z,1017.37
2018-04-18T01:57:12.707Z,1017.42
2018-04-18T01:58:12.656Z,1017.39
2018-04-18T01:59:12.635Z,1017.39
2018-04-18T02:00:12.581Z,1017.41
2018-04-18T02:01:12.510Z,1017.37
2018-04-18T02:02:12.467Z,1017.40
2018-04-18T02:03:12.419Z,1017.43
2018-04-18T02:04:12.390Z,1017.38
2018-04-18T02:05:12.330Z,1017.41
2018-04-18T02:06:12.279Z,1017.43
2018-04-18T02:07:12.229Z,1017.41
2018-04-18T02:08:12.178Z,1017.44
2018-04-18T02:09:12.155Z,1017.42
2018-04-18T02:10:12.089Z,1017.45
2018-04-18T02:11:12.033Z,1017.44
2018-04-18T02:12:11.990Z,1017.44
2018-04-18T02:13:11.945Z,1017.47
2018-04-18T02:14:11.921Z,1017.47
2018-04-18T02:15:11.853Z,1017.47
2018-04-18T02:16:11.796Z,1017.47
2018-04-18T02:17:11.761Z,1017.50
2018-04-18T02:18:11.708Z,1017.51
2018-04-18T02:19:11.678Z,1017.50
2018-04-18T02:20:11.614Z,1017.55
2018-04-18T02:21:11.561Z,1017.54
2018-04-18T02:22:11.516Z,1017.56
2018-04-18T02:23:11.466Z,1017.54
2018-04-18T02:24:11.441Z,1017.56
2018-04-18T02:25:11.374Z,1017.56
2018-04-18T02:26:11.324Z,1017.56
2018-04-18T02:27:11.279Z,1017.53
2018-04-18T02:28:11.232Z,1017.55
2018-04-18T02:29:11.209Z,1017.56
2018-04-18T02:30:11.135Z,1017.62
2018-04-18T02:31:11.084Z,1017.59
2018-04-18T02:32:11.046Z,1017.56
2018-04-18T02:33:10.993Z,1017.58
2018-04-18T02:34:10.975Z,1017.59
2018-04-18T02:35:10.902Z,1017.56
2018-04-18T02:36:10.853Z,1017.59
2018-04-18T02:37:10.807Z,1017.57
2018-04-18T02:38:10.784Z,1017.59
2018-04-18T02:39:10.731Z,1017.57
2018-04-18T02:40:10.660Z,1017.60
2018-04-18T02:41:10.617Z,1017.59
2018-04-18T02:42:10.566Z,1017.64
2018-04-18T02:43:10.520Z,1017.61
2018-04-18T02:44:10.499Z,1017.59
2018-04-18T02:45:10.428Z,1017.62
2018-04-18T02:46:10.379Z,1017.66
2018-04-18T02:47:10.344Z,1017.65
2018-04-18T02:48:10.285Z,1017.62
2018-04-18T02:49:10.259Z,1017.64
2018-04-18T02:50:10.184Z,1017.67
2018-04-18T02:51:10.179Z,1017.71
2018-04-18T02:52:10.091Z,1017.73
2018-04-18T02:53:10.049Z,1017.70
2018-04-18T02:54:10.015Z,1017.73
2018-04-18T02:55:09.945Z,1017.75
2018-04-18T02:56:09.900Z,1017.75
2018-04-18T02:57:09.852Z,1017.77
2018-04-18T02:58:09.806Z,1017.77
2018-04-18T02:59:09.786Z,1017.75
2018-04-18T03:00:09.710Z,1017.76
2018-04-18T03:01:09.678Z,1017.77
2018-04-18T03:02:09.620Z,1017.80
2018-04-18T03:03:09.564Z,1017.83
2018-04-18T03:04:09.545Z,1017.81
2018-04-18T03:05:09.469Z,1017.83
2018-04-18T03:06:09.427Z,1017.82
2018-04-18T03:07:09.382Z,1017.86
2018-04-18T03:08:09.332Z,1017.88
2018-04-18T03:09:09.302Z,1017.85
2018-04-18T03:10:09.231Z,1017.88
2018-04-18T03:11:09.189Z,1017.87
2018-04-18T03:12:09.141Z,1017.86
2018-04-18T03:13:09.092Z,1017.89
2018-04-18T03:14:09.081Z,1017.90
2018-04-18T03:15:08.998Z,1017.93
2018-04-18T03:16:08.948Z,1017.90
2018-04-18T03:17:08.904Z,1017.91
2018-04-18T03:18:08.851Z,1017.94
2018-04-18T03:19:08.807Z,1017.92
2018-04-18T03:20:08.785Z,1017.95
2018-04-18T03:21:08.717Z,1017.97
2018-04-18T03:22:08.666Z,1017.98
2018-04-18T03:23:08.616Z,1018.01
2018-04-18T03:24:08.571Z,1018.01
2018-04-18T03:25:08.555Z,1017.99
2018-04-18T03:26:08.487Z,1018.02
2018-04-18T03:27:08.427Z,1018.05
2018-04-18T03:28:08.379Z,1018.06
2018-04-18T03:29:08.334Z,1018.08
2018-04-18T03:30:08.306Z,1018.09
2018-04-18T03:31:08.235Z,1018.03
2018-04-18T03:32:08.197Z,1018.06
2018-04-18T03:33:08.143Z,1018.09
2018-04-18T03:34:08.090Z,1018.08
2018-04-18T03:35:08.069Z,1018.07
2018-04-18T03:36:08.004Z,1018.12
2018-04-18T03:37:07.951Z,1018.07
2018-04-18T03:38:07.903Z,1018.09
2018-04-18T03:40:39.497Z,1018.12
2018-04-18T03:41:39.427Z,1018.16
2018-04-18T03:42:39.379Z,1018.15
2018-04-18T03:43:39.332Z,1018.12
2018-04-18T03:44:39.307Z,1018.18
2018-04-18T03:45:39.238Z,1018.15
2018-04-18T03:46:39.187Z,1018.17
2018-04-18T03:47:39.139Z,1018.19
2018-04-18T03:48:39.090Z,1018.18
2018-04-18T03:49:39.076Z,1018.22
2018-04-18T03:50:38.995Z,1018.23
2018-04-18T03:51:38.949Z,1018.22
2018-04-18T03:52:38.897Z,1018.27
2018-04-18T03:53:38.856Z,1018.23
2018-04-18T03:54:38.827Z,1018.27
2018-04-18T03:55:38.757Z,1018.27
2018-04-18T03:56:38.709Z,1018.28
2018-04-18T03:57:38.666Z,1018.27
2018-04-18T03:58:38.613Z,1018.31
2018-04-18T03:59:38.590Z,1018.26
2018-04-18T04:00:38.514Z,1018.29
2018-04-18T04:01:38.466Z,1018.34
2018-04-18T04:02:38.419Z,1018.35
2018-04-18T04:03:38.376Z,1018.36
2018-04-18T04:04:38.352Z,1018.36
2018-04-18T04:05:38.274Z,1018.38
2018-04-18T04:06:38.230Z,1018.36
2018-04-18T04:07:38.176Z,1018.38
2018-04-18T04:08:38.131Z,1018.33
2018-04-18T04:09:38.112Z,1018.38
2018-04-18T04:10:38.039Z,1018.38
2018-04-18T04:11:37.985Z,1018.39
2018-04-18T04:12:37.938Z,1018.41
2018-04-18T04:13:37.891Z,1018.44
2018-04-18T04:14:37.865Z,1018.44
2018-04-18T04:15:37.797Z,1018.41
2018-04-18T04:16:37.746Z,1018.43
2018-04-18T04:17:37.700Z,1018.46
2018-04-18T04:18:37.649Z,1018.46
2018-04-18T04:19:37.648Z,1018.46
2018-04-18T04:20:37.556Z,1018.46
2018-04-18T04:21:37.511Z,1018.49
2018-04-18T04:22:37.459Z,1018.50
2018-04-18T04:23:37.462Z,1018.49
2018-04-18T04:24:37.364Z,1018.55
2018-04-18T04:25:37.348Z,1018.52
2018-04-18T04:26:37.268Z,1018.57
2018-04-18T04:27:37.219Z,1018.56
2018-04-18T04:28:37.173Z,1018.57
2018-04-18T04:29:37.126Z,1018.55
2018-04-18T04:30:37.099Z,1018.55
2018-04-18T04:31:37.055Z,1018.56
2018-04-18T04:32:36.979Z,1018.59
2018-04-18T04:33:36.934Z,1018.65
2018-04-18T04:34:36.884Z,1018.64
2018-04-18T04:35:36.859Z,1018.64
2018-04-18T04:36:36.788Z,1018.64
2018-04-18T04:37:36.740Z,1018.61
2018-04-18T04:38:36.698Z,1018.64
2018-04-18T04:39:36.645Z,1018.63
2018-04-18T04:40:36.621Z,1018.60
2018-04-18T04:41:36.550Z,1018.68
2018-04-18T04:42:36.497Z,1018.69
2018-04-18T04:43:36.463Z,1018.69
2018-04-18T04:44:36.404Z,1018.69
2018-04-18T04:45:36.381Z,1018.71
2018-04-18T04:46:36.310Z,1018.71
2018-04-18T04:47:36.261Z,1018.70
2018-04-18T04:48:36.213Z,1018.71
2018-04-18T04:49:44.080Z,1018.73
2018-04-18T04:50:36.143Z,1018.73
2018-04-18T04:51:36.074Z,1018.72
2018-04-18T04:52:36.024Z,1018.75
2018-04-18T04:53:35.979Z,1018.75
2018-04-18T04:54:35.927Z,1018.77
2018-04-18T04:55:35.903Z,1018.79
2018-04-18T04:56:35.835Z,1018.84
2018-04-18T04:57:35.782Z,1018.89
2018-04-18T04:58:35.738Z,1018.86
2018-04-18T04:59:35.683Z,1018.85
2018-04-18T05:00:35.664Z,1018.89
2018-04-18T05:01:35.593Z,1018.89
2018-04-18T05:02:35.546Z,1018.91
2018-04-18T05:03:35.494Z,1018.93
2018-04-18T05:04:35.452Z,1018.90
2018-04-18T05:05:35.423Z,1018.92
2018-04-18T05:06:35.352Z,1018.96
2018-04-18T05:07:35.304Z,1018.94
2018-04-18T05:08:35.259Z,1018.94
2018-04-18T05:09:35.208Z,1018.98
2018-04-18T05:10:35.183Z,1018.97
2018-04-18T05:11:35.112Z,1018.99
2018-04-18T05:12:35.068Z,1018.99
2018-04-18T05:13:35.022Z,1019.01
2018-04-18T05:14:34.968Z,1019.01
2018-04-18T05:15:34.945Z,1019.02
2018-04-18T05:16:34.874Z,1019.04
2018-04-18T05:17:34.827Z,1019.07
2018-04-18T05:18:34.776Z,1019.09
2018-04-18T05:19:34.733Z,1019.09
2018-04-18T05:20:34.712Z,1019.09
2018-04-18T05:21:34.633Z,1019.08
2018-04-18T05:22:34.585Z,1019.16
2018-04-18T05:23:34.543Z,1019.17
2018-04-18T05:24:34.490Z,1019.17
2018-04-18T05:25:34.470Z,1019.20
2018-04-18T05:26:34.398Z,1019.19
2018-04-18T05:27:34.347Z,1019.22
2018-04-18T05:28:34.307Z,1019.24
2018-04-18T05:29:34.251Z,1019.21
2018-04-18T05:30:34.229Z,1019.26
2018-04-18T05:31:34.160Z,1019.28
2018-04-18T05:32:34.109Z,1019.29
2018-04-18T05:33:34.062Z,1019.29
2018-04-18T05:34:34.017Z,1019.32
2018-04-18T05:35:33.994Z,1019.31
2018-04-18T05:36:33.919Z,1019.31
2018-04-18T05:37:33.874Z,1019.33
2018-04-18T05:38:33.829Z,1019.35
2018-04-18T05:39:33.779Z,1019.37
2018-04-18T05:40:33.730Z,1019.36
2018-04-18T05:41:33.708Z,1019.40
2018-04-18T05:42:33.634Z,1019.44
2018-04-18T05:43:33.588Z,1019.45
2018-04-18T05:44:33.541Z,1019.47
2018-04-18T05:45:33.495Z,1019.49
2018-04-18T05:46:33.469Z,1019.48
2018-04-18T05:47:33.401Z,1019.47
2018-04-18T05:48:33.354Z,1019.49
2018-04-18T05:49:33.306Z,1019.53
2018-04-18T05:50:33.259Z,1019.52
2018-04-18T05:51:33.234Z,1019.51
2018-04-18T05:52:33.166Z,1019.57
2018-04-18T05:53:33.117Z,1019.55
2018-04-18T05:54:33.068Z,1019.59
2018-04-18T05:55:33.031Z,1019.58
2018-04-18T05:56:32.999Z,1019.61
2018-04-18T05:57:32.938Z,1019.62
2018-04-18T05:58:32.882Z,1019.59
2018-04-18T05:59:32.836Z,1019.63
2018-04-18T06:00:32.787Z,1019.67
2018-04-18T06:01:32.763Z,1019.66
2018-04-18T06:02:32.696Z,1019.67
2018-04-18T06:03:32.651Z,1019.69
2018-04-18T06:04:32.604Z,1019.68
2018-04-18T06:05:32.556Z,1019.69
2018-04-18T06:06:32.532Z,1019.68
2018-04-18T06:07:32.463Z,1019.70
2018-04-18T06:08:32.417Z,1019.70
2018-04-18T06:09:32.372Z,1019.75
2018-04-18T06:10:32.328Z,1019.74
2018-04-18T06:11:32.305Z,1019.76
2018-04-18T06:12:32.243Z,1019.75
2018-04-18T06:13:32.187Z,1019.75
2018-04-18T06:14:32.143Z,1019.78
2018-04-18T06:15:32.098Z,1019.80
2018-04-18T06:16:32.071Z,1019.83
2018-04-18T06:17:32.006Z,1019.88
2018-04-18T06:18:31.957Z,1019.89
2018-04-18T06:19:31.921Z,1019.90
2018-04-18T06:20:31.867Z,1019.92
2018-04-18T06:21:31.853Z,1019.92
2018-04-18T06:22:31.775Z,1019.94
2018-04-18T06:23:31.730Z,1019.95
2018-04-18T06:24:31.684Z,1019.95
2018-04-18T06:25:31.640Z,1019.95
2018-04-18T06:26:31.617Z,1019.92
2018-04-18T06:27:31.545Z,1019.93
2018-04-18T06:28:31.502Z,1019.94
2018-04-18T06:29:31.458Z,1019.96
2018-04-18T06:30:31.420Z,1019.94
2018-04-18T06:31:31.390Z,1019.95
2018-04-18T06:32:31.326Z,1019.96
2018-04-18T06:33:31.277Z,1019.92
2018-04-18T06:34:31.232Z,1019.96
2018-04-18T06:35:31.184Z,1019.96
2018-04-18T06:36:31.176Z,1019.99
2018-04-18T06:37:31.097Z,1019.95
2018-04-18T06:38:31.050Z,1019.96
2018-04-18T06:39:31.014Z,1020.01
2018-04-18T06:40:30.960Z,1019.99
2018-04-18T06:41:30.939Z,1020.00
2018-04-18T06:42:30.869Z,1019.99
2018-04-18T06:43:30.830Z,1020.00
2018-04-18T06:44:30.777Z,1019.98
2018-04-18T06:45:30.737Z,1020.03
2018-04-18T06:46:30.712Z,1020.01
2018-04-18T06:47:30.648Z,1019.96
2018-04-18T06:48:30.603Z,1019.97
2018-04-18T06:49:30.556Z,1019.96
2018-04-18T06:50:30.511Z,1019.99
2018-04-18T06:51:30.488Z,1020.02
2018-04-18T06:52:30.420Z,1020.01
2018-04-18T06:53:30.380Z,1020.02
2018-04-18T06:54:30.332Z,1020.05
2018-04-18T06:55:30.289Z,1020.06
2018-04-18T06:56:30.269Z,1020.07
2018-04-18T06:57:30.207Z,1020.07
2018-04-18T06:58:30.154Z,1020.10
2018-04-18T06:59:30.112Z,1020.10
2018-04-18T07:00:30.066Z,1020.13
2018-04-18T07:01:30.045Z,1020.12
2018-04-18T07:02:29.978Z,1020.10
2018-04-18T07:03:29.935Z,1020.11
2018-04-18T07:04:29.889Z,1020.15
2018-04-18T07:05:29.845Z,1020.14
2018-04-18T07:06:29.824Z,1020.18
2018-04-18T07:07:29.757Z,1020.17
2018-04-18T07:08:29.714Z,1020.21
2018-04-18T07:09:29.669Z,1020.25
2018-04-18T07:10:29.623Z,1020.21
2018-04-18T07:11:29.605Z,1020.21
2018-04-18T07:12:29.540Z,1020.22
2018-04-18T07:13:29.493Z,1020.25
2018-04-18T07:14:29.451Z,1020.26
2018-04-18T07:15:29.404Z,1020.25
2018-04-18T07:16:29.382Z,1020.25
2018-04-18T07:17:29.313Z,1020.25
2018-04-18T07:18:29.284Z,1020.27
2018-04-18T07:19:29.228Z,1020.27
2018-04-18T07:20:29.182Z,1020.29
2018-04-18T07:21:29.163Z,1020.25
2018-04-18T07:22:29.103Z,1020.25
2018-04-18T07:23:29.052Z,1020.26
2018-04-18T07:24:29.004Z,1020.25
2018-04-18T07:25:28.962Z,1020.22
2018-04-18T07:26:28.941Z,1020.24
2018-04-18T07:27:28.876Z,1020.29
2018-04-18T07:28:28.830Z,1020.25
2018-04-18T07:29:28.786Z,1020.27
2018-04-18T07:30:28.741Z,1020.28
2018-04-18T07:31:28.746Z,1020.27
2018-04-18T07:32:28.653Z,1020.30
2018-04-18T07:33:28.613Z,1020.31
2018-04-18T07:34:28.565Z,1020.29
2018-04-18T07:35:28.523Z,1020.34
2018-04-18T07:36:28.505Z,1020.30
2018-04-18T07:37:28.436Z,1020.35
2018-04-18T07:38:28.395Z,1020.34
2018-04-18T07:39:28.350Z,1020.30
2018-04-18T07:40:28.309Z,1020.33
2018-04-18T07:41:28.286Z,1020.35
2018-04-18T07:42:28.218Z,1020.34
2018-04-18T07:43:28.199Z,1020.34
2018-04-18T07:44:28.135Z,1020.37
2018-04-18T07:45:28.090Z,1020.34
2018-04-18T07:46:28.075Z,1020.40
2018-04-18T07:47:28.001Z,1020.44
2018-04-18T07:48:28.008Z,1020.45
2018-04-18T07:49:27.917Z,1020.49
2018-04-18T07:50:27.876Z,1020.48
2018-04-18T07:51:27.855Z,1020.47
2018-04-18T07:52:27.789Z,1020.51
2018-04-18T07:53:27.742Z,1020.49
2018-04-18T07:54:27.700Z,1020.48
2018-04-18T07:55:27.655Z,1020.53
2018-04-18T07:56:27.641Z,1020.55
2018-04-18T07:57:27.575Z,1020.56
2018-04-18T07:58:27.525Z,1020.58
2018-04-18T07:59:27.484Z,1020.58
2018-04-18T08:00:27.440Z,1020.59
2018-04-18T08:01:27.421Z,1020.63
2018-04-18T08:02:27.352Z,1020.61
2018-04-18T08:03:27.310Z,1020.61
2018-04-18T08:04:27.263Z,1020.60
2018-04-18T08:05:27.220Z,1020.68
2018-04-18T08:06:27.209Z,1020.68
2018-04-18T08:07:27.137Z,1020.70
2018-04-18T08:08:27.093Z,1020.71
2018-04-18T08:09:27.052Z,1020.66
2018-04-18T08:10:27.018Z,1020.66
2018-04-18T08:11:26.982Z,1020.68
2018-04-18T08:12:26.920Z,1020.68
2018-04-18T08:13:26.875Z,1020.70
2018-04-18T08:14:26.837Z,1020.66
2018-04-18T08:15:26.873Z,1020.64
2018-04-18T08:16:26.768Z,1020.66
2018-04-18T08:17:26.701Z,1020.62
2018-04-18T08:18:26.658Z,1020.63
2018-04-18T08:19:26.635Z,1020.66
2018-04-18T08:20:26.571Z,1020.64
2018-04-18T08:21:26.554Z,1020.66
2018-04-18T08:22:26.486Z,1020.66
2018-04-18T08:23:26.442Z,1020.68
2018-04-18T08:24:26.411Z,1020.70
2018-04-18T08:25:26.360Z,1020.70
2018-04-18T08:26:26.338Z,1020.69
2018-04-18T08:27:26.274Z,1020.66
2018-04-18T08:28:26.236Z,1020.68
2018-04-18T08:29:26.185Z,1020.68
2018-04-18T08:30:26.143Z,1020.70
2018-04-18T08:31:26.121Z,1020.68
2018-04-18T08:32:26.081Z,1020.73
2018-04-18T08:33:26.015Z,1020.73
2018-04-18T08:34:25.969Z,1020.72
2018-04-18T08:35:25.929Z,1020.72
2018-04-18T08:36:25.883Z,1020.73
2018-04-18T08:37:25.866Z,1020.73
2018-04-18T08:38:25.801Z,1020.72
2018-04-18T08:39:25.757Z,1020.71
2018-04-18T08:40:25.713Z,1020.74
2018-04-18T08:41:25.671Z,1020.72
2018-04-18T08:42:25.653Z,1020.79
2018-04-18T08:43:25.588Z,1020.76
2018-04-18T08:44:25.546Z,1020.74
2018-04-18T08:45:25.502Z,1020.72
2018-04-18T08:46:25.464Z,1020.71
2018-04-18T08:47:25.437Z,1020.74
2018-04-18T08:48:25.381Z,1020.75
2018-04-18T08:49:25.330Z,1020.72
2018-04-18T08:50:25.286Z,1020.73
2018-04-18T08:51:25.249Z,1020.71
2018-04-18T08:52:25.229Z,1020.71
2018-04-18T08:53:25.164Z,1020.72
2018-04-18T08:54:25.116Z,1020.72
2018-04-18T08:55:25.076Z,1020.69
2018-04-18T08:56:25.034Z,1020.69
2018-04-18T08:57:25.016Z,1020.67
2018-04-18T08:58:24.951Z,1020.68
2018-04-18T08:59:24.909Z,1020.65
2018-04-18T09:00:24.867Z,1020.68
2018-04-18T09:01:24.823Z,1020.63
2018-04-18T09:02:24.801Z,1020.67
2018-04-18T09:03:24.751Z,1020.59
2018-04-18T09:04:24.698Z,1020.67
2018-04-18T09:05:24.659Z,1020.66
2018-04-18T09:06:24.617Z,1020.65
2018-04-18T09:07:24.595Z,1020.63
2018-04-18T09:08:24.529Z,1020.64
2018-04-18T09:09:24.484Z,1020.63
2018-04-18T09:10:24.441Z,1020.61
2018-04-18T09:11:24.402Z,1020.59
2018-04-18T09:12:24.384Z,1020.54
2018-04-18T09:13:24.318Z,1020.55
2018-04-18T09:14:24.273Z,1020.55
2018-04-18T09:15:24.232Z,1020.53
2018-04-18T09:16:24.192Z,1020.53
2018-04-18T09:17:24.176Z,1020.57
2018-04-18T09:18:24.105Z,1020.56
2018-04-18T09:19:24.067Z,1020.57
2018-04-18T09:20:24.025Z,1020.60
2018-04-18T09:21:23.982Z,1020.61
2018-04-18T09:22:23.960Z,1020.58
2018-04-18T09:23:23.901Z,1020.60
2018-04-18T09:24:23.862Z,1020.56
2018-04-18T09:25:23.816Z,1020.60
2018-04-18T09:26:23.788Z,1020.57
2018-04-18T09:27:23.759Z,1020.56
2018-04-18T09:28:23.693Z,1020.56
2018-04-18T09:29:23.649Z,1020.54
2018-04-18T09:30:23.607Z,1020.56
2018-04-18T09:31:23.567Z,1020.55
2018-04-18T09:32:23.546Z,1020.54
2018-04-18T09:33:23.482Z,1020.58
2018-04-18T09:34:23.446Z,1020.56
2018-04-18T09:35:23.403Z,1020.56
2018-04-18T09:36:23.359Z,1020.57
2018-04-18T09:37:23.344Z,1020.56
2018-04-18T09:38:23.275Z,1020.56
2018-04-18T09:39:23.234Z,1020.51
2018-04-18T09:40:23.193Z,1020.57
2018-04-18T09:41:23.154Z,1020.51
2018-04-18T09:42:23.134Z,1020.51
2018-04-18T09:43:23.074Z,1020.55
2018-04-18T09:44:23.030Z,1020.57
2018-04-18T09:45:22.990Z,1020.57
2018-04-18T09:46:22.947Z,1020.55
2018-04-18T09:47:22.928Z,1020.56
2018-04-18T09:48:22.869Z,1020.55
2018-04-18T09:49:22.829Z,1020.52
2018-04-18T09:50:22.784Z,1020.56
2018-04-18T09:51:22.753Z,1020.61
2018-04-18T09:52:22.731Z,1020.60
2018-04-18T09:53:22.664Z,1020.59
2018-04-18T09:54:22.620Z,1020.59
2018-04-18T09:55:22.583Z,1020.56
2018-04-18T09:56:22.543Z,1020.59
2018-04-18T09:57:22.526Z,1020.58
2018-04-18T09:58:22.511Z,1020.55
2018-04-18T09:59:22.416Z,1020.53
2018-04-18T10:00:22.377Z,1020.56
2018-04-18T10:01:22.338Z,1020.50
2018-04-18T10:02:22.331Z,1020.49
2018-04-18T10:03:22.254Z,1020.48
2018-04-18T10:04:22.219Z,1020.51
2018-04-18T10:05:22.176Z,1020.50
2018-04-18T10:06:22.135Z,1020.49
2018-04-18T10:07:22.117Z,1020.49
2018-04-18T10:08:22.058Z,1020.48
2018-04-18T10:09:22.014Z,1020.47
2018-04-18T10:10:21.990Z,1020.46
2018-04-18T10:11:21.938Z,1020.51
2018-04-18T10:12:21.917Z,1020.53
2018-04-18T10:13:21.851Z,1020.48
2018-04-18T10:14:21.810Z,1020.48
2018-04-18T10:15:21.771Z,1020.48
2018-04-18T10:16:21.731Z,1020.50
2018-04-18T10:17:21.710Z,1020.49
2018-04-18T10:18:21.646Z,1020.48
2018-04-18T10:19:21.611Z,1020.46
2018-04-18T10:20:21.569Z,1020.45
2018-04-18T10:21:21.533Z,1020.44
2018-04-18T10:22:21.507Z,1020.47
2018-04-18T10:23:21.447Z,1020.49
2018-04-18T10:24:21.404Z,1020.46
2018-04-18T10:25:21.368Z,1020.49
2018-04-18T10:26:21.329Z,1020.45
2018-04-18T10:27:21.311Z,1020.48
2018-04-18T10:28:21.248Z,1020.51
2018-04-18T10:29:21.203Z,1020.48
2018-04-18T10:30:21.164Z,1020.46
2018-04-18T10:31:21.124Z,1020.46
2018-04-18T10:32:21.106Z,1020.42
2018-04-18T10:33:21.044Z,1020.41
2018-04-18T10:34:21.000Z,1020.41
2018-04-18T10:35:20.965Z,1020.41
2018-04-18T10:36:20.924Z,1020.41
2018-04-18T10:37:20.904Z,1020.38
2018-04-18T10:38:20.842Z,1020.40
2018-04-18T10:39:20.805Z,1020.34
2018-04-18T10:40:20.762Z,1020.37
2018-04-18T10:41:20.725Z,1020.35
2018-04-18T10:42:20.701Z,1020.36
2018-04-18T10:43:20.655Z,1020.35
2018-04-18T10:44:20.601Z,1020.33
2018-04-18T10:45:20.565Z,1020.32
2018-04-18T10:46:20.521Z,1020.30
2018-04-18T10:47:20.504Z,1020.32
2018-04-18T10:48:20.442Z,1020.31
2018-04-18T10:49:20.404Z,1020.34
2018-04-18T10:50:20.358Z,1020.32
2018-04-18T10:51:20.321Z,1020.32
2018-04-18T10:52:20.306Z,1020.31
2018-04-18T10:53:20.240Z,1020.33
2018-04-18T10:54:20.198Z,1020.33
2018-04-18T10:55:20.160Z,1020.27
2018-04-18T10:56:20.123Z,1020.31
2018-04-18T10:57:20.105Z,1020.27
2018-04-18T10:58:20.042Z,1020.30
2018-04-18T10:59:19.999Z,1020.33
2018-04-18T11:00:19.964Z,1020.32
2018-04-18T11:01:19.922Z,1020.39
2018-04-18T11:02:19.904Z,1020.31
2018-04-18T11:03:19.841Z,1020.35
2018-04-18T11:04:19.799Z,1020.35
2018-04-18T11:05:19.760Z,1020.31
2018-04-18T11:06:19.719Z,1020.31
2018-04-18T11:07:19.707Z,1020.27
2018-04-18T11:08:19.639Z,1020.28
2018-04-18T11:09:19.599Z,1020.24
2018-04-18T11:10:19.587Z,1020.27
2018-04-18T11:11:19.520Z,1020.25
2018-04-18T11:12:19.503Z,1020.24
2018-04-18T11:13:19.490Z,1020.24
2018-04-18T11:14:19.403Z,1020.26
2018-04-18T11:15:19.356Z,1020.20
2018-04-18T11:16:19.318Z,1020.21
2018-04-18T11:17:19.299Z,1020.20
2018-04-18T11:18:19.235Z,1020.18
2018-04-18T11:19:19.195Z,1020.17
2018-04-18T11:20:19.159Z,1020.15
2018-04-18T11:21:19.114Z,1020.17
2018-04-18T11:22:19.108Z,1020.20
2018-04-18T11:23:19.037Z,1020.20
2018-04-18T11:24:18.995Z,1020.17
2018-04-18T11:25:18.952Z,1020.17
2018-04-18T11:26:18.912Z,1020.19
2018-04-18T11:27:18.873Z,1020.17
2018-04-18T11:28:18.855Z,1020.19
2018-04-18T11:29:18.792Z,1020.15
2018-04-18T11:30:18.751Z,1020.18
2018-04-18T11:31:18.712Z,1020.17
2018-04-18T11:32:18.672Z,1020.16
2018-04-18T11:33:18.669Z,1020.14
2018-04-18T11:34:18.592Z,1020.12
2018-04-18T11:35:18.556Z,1020.10
2018-04-18T11:36:18.514Z,1020.10
2018-04-18T11:37:18.470Z,1020.07
2018-04-18T11:38:18.455Z,1020.09
2018-04-18T11:39:18.389Z,1020.11
2018-04-18T11:40:18.354Z,1020.09
2018-04-18T11:41:18.317Z,1020.09
2018-04-18T11:42:18.270Z,1020.09
2018-04-18T11:43:18.254Z,1020.06
2018-04-18T11:44:18.191Z,1020.04
2018-04-18T11:45:18.152Z,1020.04
2018-04-18T11:46:18.113Z,1020.05
2018-04-18T11:47:18.074Z,1020.09
2018-04-18T11:48:18.055Z,1020.04
2018-04-18T11:49:17.990Z,1020.03
2018-04-18T11:50:17.946Z,1020.02
2018-04-18T11:51:17.919Z,1020.02
2018-04-18T11:52:17.870Z,1019.99
2018-04-18T11:53:17.856Z,1020.01
2018-04-18T11:54:17.794Z,1020.04
2018-04-18T11:55:17.750Z,1020.05
2018-04-18T11:56:17.712Z,1020.05
2018-04-18T11:57:17.670Z,1020.07
2018-04-18T11:58:17.653Z,1020.03
2018-04-18T11:59:17.589Z,1020.03
2018-04-18T12:00:17.549Z,1020.02
2018-04-18T12:01:17.510Z,1020.06
2018-04-18T12:02:17.487Z,1020.04
2018-04-18T12:03:17.451Z,1020.01
2018-04-18T12:04:17.388Z,1020.03
2018-04-18T12:05:17.349Z,1020.03
2018-04-18T12:06:17.309Z,1020.03